sensor_id;sensor_type;location;lat;lon;timestamp;temperature;humidity
22682;DHT22;11508;50.856;4.380;2023-02-21T00:01:53;7.80;99.90
22682;DHT22;11508;50.856;4.380;2023-02-21T00:04:37;7.80;99.90
22682;DHT22;11508;50.856;4.380;2023-02-21T00:07:22;7.70;99.90
22682;DHT22;11508;50.856;4.380;2023-02-21T00:10:07;7.70;99.90
22682;DHT22;11508;50.856;4.380;2023-02-21T00:12:52;7.60;99.90
22682;DHT22;11508;50.856;4.380;2023-02-21T00:15:36;7.60;99.90
22682;DHT22;11508;50.856;4.380;2023-02-21T00:18:21;7.60;99.90
22682;DHT22;11508;50.856;4.380;2023-02-21T00:21:05;7.50;99.90
22682;DHT22;11508;50.856;4.380;2023-02-21T00:23:50;7.70;99.90
22682;DHT22;11508;50.856;4.380;2023-02-21T00:26:35;7.70;99.90
22682;DHT22;11508;50.856;4.380;2023-02-21T00:29:19;7.60;99.90
22682;DHT22;11508;50.856;4.380;2023-02-21T00:32:03;7.50;99.90
22682;DHT22;11508;50.856;4.380;2023-02-21T00:34:48;7.50;99.90
22682;DHT22;11508;50.856;4.380;2023-02-21T00:37:31;7.40;99.90
22682;DHT22;11508;50.856;4.380;2023-02-21T00:40:16;7.40;99.90
22682;DHT22;11508;50.856;4.380;2023-02-21T00:43:00;7.40;99.90
22682;DHT22;11508;50.856;4.380;2023-02-21T00:45:45;7.70;99.90
22682;DHT22;11508;50.856;4.380;2023-02-21T00:48:29;8.10;99.90
22682;DHT22;11508;50.856;4.380;2023-02-21T00:51:14;7.90;99.90
22682;DHT22;11508;50.856;4.380;2023-02-21T00:53:58;7.80;99.90
22682;DHT22;11508;50.856;4.380;2023-02-21T00:56:44;7.80;99.90
22682;DHT22;11508;50.856;4.380;2023-02-21T00:59:28;7.60;99.90
22682;DHT22;11508;50.856;4.380;2023-02-21T01:02:12;7.50;99.90
22682;DHT22;11508;50.856;4.380;2023-02-21T01:04:56;7.50;99.90
22682;DHT22;11508;50.856;4.380;2023-02-21T01:07:40;7.60;99.90
22682;DHT22;11508;50.856;4.380;2023-02-21T01:10:24;7.80;99.90
22682;DHT22;11508;50.856;4.380;2023-02-21T01:13:09;7.70;99.90
22682;DHT22;11508;50.856;4.380;2023-02-21T01:15:53;7.70;99.90
22682;DHT22;11508;50.856;4.380;2023-02-21T01:18:38;7.60;99.90
22682;DHT22;11508;50.856;4.380;2023-02-21T01:21:21;7.60;99.90
22682;DHT22;11508;50.856;4.380;2023-02-21T01:24:09;7.60;99.90
22682;DHT22;11508;50.856;4.380;2023-02-21T01:26:54;7.40;99.90
22682;DHT22;11508;50.856;4.380;2023-02-21T01:29:38;7.50;99.90
22682;DHT22;11508;50.856;4.380;2023-02-21T01:32:22;7.40;99.90
22682;DHT22;11508;50.856;4.380;2023-02-21T01:35:07;7.50;99.90
22682;DHT22;11508;50.856;4.380;2023-02-21T01:37:51;7.90;99.90
22682;DHT22;11508;50.856;4.380;2023-02-21T01:40:37;8.10;99.90
22682;DHT22;11508;50.856;4.380;2023-02-21T01:43:22;7.80;99.90
22682;DHT22;11508;50.856;4.380;2023-02-21T01:46:12;7.50;99.90
22682;DHT22;11508;50.856;4.380;2023-02-21T01:49:00;7.40;99.90
22682;DHT22;11508;50.856;4.380;2023-02-21T01:51:45;7.30;99.90
22682;DHT22;11508;50.856;4.380;2023-02-21T01:54:32;7.30;99.90
22682;DHT22;11508;50.856;4.380;2023-02-21T01:57:18;7.10;99.90
22682;DHT22;11508;50.856;4.380;2023-02-21T02:00:05;7.20;99.90
22682;DHT22;11508;50.856;4.380;2023-02-21T02:03:04;7.20;99.90
22682;DHT22;11508;50.856;4.380;2023-02-21T02:06:09;7.20;99.90
22682;DHT22;11508;50.856;4.380;2023-02-21T02:08:55;7.10;99.90
22682;DHT22;11508;50.856;4.380;2023-02-21T02:23:59;6.90;99.90
22682;DHT22;11508;50.856;4.380;2023-02-21T02:26:49;6.90;99.90
22682;DHT22;11508;50.856;4.380;2023-02-21T02:37:56;6.80;99.90
22682;DHT22;11508;50.856;4.380;2023-02-21T02:48:27;6.80;99.90
22682;DHT22;11508;50.856;4.380;2023-02-21T02:50:55;6.80;99.90
22682;DHT22;11508;50.856;4.380;2023-02-21T02:53:26;6.80;99.90
22682;DHT22;11508;50.856;4.380;2023-02-21T02:56:01;6.80;99.90
22682;DHT22;11508;50.856;4.380;2023-02-21T02:58:33;6.70;99.90
22682;DHT22;11508;50.856;4.380;2023-02-21T03:11:37;6.90;99.90
22682;DHT22;11508;50.856;4.380;2023-02-21T03:14:14;6.90;99.90
22682;DHT22;11508;50.856;4.380;2023-02-21T03:16:47;6.90;99.90
22682;DHT22;11508;50.856;4.380;2023-02-21T03:19:32;6.80;99.90
22682;DHT22;11508;50.856;4.380;2023-02-21T03:22:02;6.80;99.90
22682;DHT22;11508;50.856;4.380;2023-02-21T03:24:30;6.70;99.90
22682;DHT22;11508;50.856;4.380;2023-02-21T03:27:01;6.70;99.90
22682;DHT22;11508;50.856;4.380;2023-02-21T03:29:28;6.90;99.90
22682;DHT22;11508;50.856;4.380;2023-02-21T03:35:06;6.90;99.90
22682;DHT22;11508;50.856;4.380;2023-02-21T03:39:58;7.00;99.90
22682;DHT22;11508;50.856;4.380;2023-02-21T03:42:24;7.00;99.90
22682;DHT22;11508;50.856;4.380;2023-02-21T03:44:50;6.80;99.90
22682;DHT22;11508;50.856;4.380;2023-02-21T03:47:16;6.90;99.90
22682;DHT22;11508;50.856;4.380;2023-02-21T03:49:41;6.80;99.90
22682;DHT22;11508;50.856;4.380;2023-02-21T03:52:10;6.90;99.90
22682;DHT22;11508;50.856;4.380;2023-02-21T03:54:37;6.90;99.90
22682;DHT22;11508;50.856;4.380;2023-02-21T03:57:03;7.00;99.90
22682;DHT22;11508;50.856;4.380;2023-02-21T03:59:29;7.00;99.90
22682;DHT22;11508;50.856;4.380;2023-02-21T04:01:54;7.00;99.90
22682;DHT22;11508;50.856;4.380;2023-02-21T04:04:20;6.90;99.90
22682;DHT22;11508;50.856;4.380;2023-02-21T04:06:46;7.00;99.90
22682;DHT22;11508;50.856;4.380;2023-02-21T04:09:11;6.80;99.90
22682;DHT22;11508;50.856;4.380;2023-02-21T04:11:37;6.80;99.90
22682;DHT22;11508;50.856;4.380;2023-02-21T04:14:03;6.80;99.90
22682;DHT22;11508;50.856;4.380;2023-02-21T04:16:29;6.80;99.90
22682;DHT22;11508;50.856;4.380;2023-02-21T04:18:55;6.70;99.90
22682;DHT22;11508;50.856;4.380;2023-02-21T04:21:21;6.80;99.90
22682;DHT22;11508;50.856;4.380;2023-02-21T04:23:47;6.80;99.90
22682;DHT22;11508;50.856;4.380;2023-02-21T04:26:13;6.90;99.90
22682;DHT22;11508;50.856;4.380;2023-02-21T04:28:39;6.90;99.90
22682;DHT22;11508;50.856;4.380;2023-02-21T04:31:04;7.00;99.90
22682;DHT22;11508;50.856;4.380;2023-02-21T04:33:30;6.80;99.90
22682;DHT22;11508;50.856;4.380;2023-02-21T04:35:56;6.80;99.90
22682;DHT22;11508;50.856;4.380;2023-02-21T04:38:22;6.90;99.90
22682;DHT22;11508;50.856;4.380;2023-02-21T04:40:47;7.00;99.90
22682;DHT22;11508;50.856;4.380;2023-02-21T04:43:13;7.10;99.90
22682;DHT22;11508;50.856;4.380;2023-02-21T04:45:38;7.00;99.90
22682;DHT22;11508;50.856;4.380;2023-02-21T04:48:04;7.10;99.90
22682;DHT22;11508;50.856;4.380;2023-02-21T04:50:30;7.10;99.90
22682;DHT22;11508;50.856;4.380;2023-02-21T04:52:56;7.00;99.90
22682;DHT22;11508;50.856;4.380;2023-02-21T04:55:21;6.90;99.90
22682;DHT22;11508;50.856;4.380;2023-02-21T04:57:47;6.90;99.90
22682;DHT22;11508;50.856;4.380;2023-02-21T05:00:14;6.80;99.90
22682;DHT22;11508;50.856;4.380;2023-02-21T05:02:44;6.90;99.90
22682;DHT22;11508;50.856;4.380;2023-02-21T05:05:10;6.90;99.90
22682;DHT22;11508;50.856;4.380;2023-02-21T05:07:36;6.90;99.90
22682;DHT22;11508;50.856;4.380;2023-02-21T05:10:02;6.90;99.90
22682;DHT22;11508;50.856;4.380;2023-02-21T05:12:30;6.90;99.90
22682;DHT22;11508;50.856;4.380;2023-02-21T05:14:56;6.80;99.90
22682;DHT22;11508;50.856;4.380;2023-02-21T05:17:21;6.80;99.90
22682;DHT22;11508;50.856;4.380;2023-02-21T05:19:47;6.80;99.90
22682;DHT22;11508;50.856;4.380;2023-02-21T05:22:13;7.00;99.90
22682;DHT22;11508;50.856;4.380;2023-02-21T05:24:42;6.90;99.90
22682;DHT22;11508;50.856;4.380;2023-02-21T05:27:08;6.70;99.90
22682;DHT22;11508;50.856;4.380;2023-02-21T05:29:40;6.70;99.90
22682;DHT22;11508;50.856;4.380;2023-02-21T05:32:06;6.70;99.90
22682;DHT22;11508;50.856;4.380;2023-02-21T05:34:32;6.70;99.90
22682;DHT22;11508;50.856;4.380;2023-02-21T05:36:57;6.70;99.90
22682;DHT22;11508;50.856;4.380;2023-02-21T05:39:23;6.80;99.90
22682;DHT22;11508;50.856;4.380;2023-02-21T05:41:50;6.90;99.90
22682;DHT22;11508;50.856;4.380;2023-02-21T05:44:16;7.00;99.90
22682;DHT22;11508;50.856;4.380;2023-02-21T05:46:42;7.00;99.90
22682;DHT22;11508;50.856;4.380;2023-02-21T05:49:10;7.00;99.90
22682;DHT22;11508;50.856;4.380;2023-02-21T05:51:38;7.00;99.90
22682;DHT22;11508;50.856;4.380;2023-02-21T05:54:06;7.00;99.90
22682;DHT22;11508;50.856;4.380;2023-02-21T05:56:37;7.00;99.90
22682;DHT22;11508;50.856;4.380;2023-02-21T05:59:04;7.00;99.90
22682;DHT22;11508;50.856;4.380;2023-02-21T06:01:30;6.80;99.90
22682;DHT22;11508;50.856;4.380;2023-02-21T06:03:56;6.70;99.90
22682;DHT22;11508;50.856;4.380;2023-02-21T06:06:21;6.60;99.90
22682;DHT22;11508;50.856;4.380;2023-02-21T06:08:48;6.70;99.90
22682;DHT22;11508;50.856;4.380;2023-02-21T06:11:15;6.70;99.90
22682;DHT22;11508;50.856;4.380;2023-02-21T06:13:41;6.80;99.90
22682;DHT22;11508;50.856;4.380;2023-02-21T06:16:06;6.90;99.90
22682;DHT22;11508;50.856;4.380;2023-02-21T06:18:32;6.90;99.90
22682;DHT22;11508;50.856;4.380;2023-02-21T06:21:00;6.90;99.90
22682;DHT22;11508;50.856;4.380;2023-02-21T06:23:26;6.80;99.90
22682;DHT22;11508;50.856;4.380;2023-02-21T06:25:51;6.80;99.90
22682;DHT22;11508;50.856;4.380;2023-02-21T06:28:17;6.90;99.90
22682;DHT22;11508;50.856;4.380;2023-02-21T06:30:43;6.90;99.90
22682;DHT22;11508;50.856;4.380;2023-02-21T06:33:09;6.80;99.90
22682;DHT22;11508;50.856;4.380;2023-02-21T06:35:34;6.90;99.90
22682;DHT22;11508;50.856;4.380;2023-02-21T06:38:00;6.90;99.90
22682;DHT22;11508;50.856;4.380;2023-02-21T06:40:26;7.00;99.90
22682;DHT22;11508;50.856;4.380;2023-02-21T06:42:51;7.00;99.90
22682;DHT22;11508;50.856;4.380;2023-02-21T06:45:17;7.00;99.90
22682;DHT22;11508;50.856;4.380;2023-02-21T06:47:42;7.00;99.90
22682;DHT22;11508;50.856;4.380;2023-02-21T06:50:08;7.10;99.90
22682;DHT22;11508;50.856;4.380;2023-02-21T06:52:34;7.10;99.90
22682;DHT22;11508;50.856;4.380;2023-02-21T06:55:00;7.00;99.90
22682;DHT22;11508;50.856;4.380;2023-02-21T06:57:25;6.90;99.90
22682;DHT22;11508;50.856;4.380;2023-02-21T06:59:51;6.90;99.90
22682;DHT22;11508;50.856;4.380;2023-02-21T07:02:18;7.00;99.90
22682;DHT22;11508;50.856;4.380;2023-02-21T07:04:45;6.90;99.90
22682;DHT22;11508;50.856;4.380;2023-02-21T07:07:11;6.80;99.90
22682;DHT22;11508;50.856;4.380;2023-02-21T07:09:36;6.90;99.90
22682;DHT22;11508;50.856;4.380;2023-02-21T07:12:02;6.70;99.90
22682;DHT22;11508;50.856;4.380;2023-02-21T07:14:28;6.80;99.90
22682;DHT22;11508;50.856;4.380;2023-02-21T07:16:54;6.90;99.90
22682;DHT22;11508;50.856;4.380;2023-02-21T07:19:20;6.90;99.90
22682;DHT22;11508;50.856;4.380;2023-02-21T07:21:46;6.90;99.90
22682;DHT22;11508;50.856;4.380;2023-02-21T07:24:12;6.90;99.90
22682;DHT22;11508;50.856;4.380;2023-02-21T07:26:38;6.80;99.90
22682;DHT22;11508;50.856;4.380;2023-02-21T07:29:04;6.90;99.90
22682;DHT22;11508;50.856;4.380;2023-02-21T07:31:30;7.00;99.90
22682;DHT22;11508;50.856;4.380;2023-02-21T07:33:56;7.00;99.90
22682;DHT22;11508;50.856;4.380;2023-02-21T07:36:21;7.00;99.90
22682;DHT22;11508;50.856;4.380;2023-02-21T07:38:47;7.10;99.90
22682;DHT22;11508;50.856;4.380;2023-02-21T07:41:14;7.30;99.90
22682;DHT22;11508;50.856;4.380;2023-02-21T07:43:40;7.30;99.90
22682;DHT22;11508;50.856;4.380;2023-02-21T07:46:13;7.30;99.90
22682;DHT22;11508;50.856;4.380;2023-02-21T07:48:40;7.20;99.90
22682;DHT22;11508;50.856;4.380;2023-02-21T07:51:06;7.20;99.90
22682;DHT22;11508;50.856;4.380;2023-02-21T07:53:33;7.10;99.90
22682;DHT22;11508;50.856;4.380;2023-02-21T07:55:59;7.10;99.90
22682;DHT22;11508;50.856;4.380;2023-02-21T07:58:25;7.10;99.90
22682;DHT22;11508;50.856;4.380;2023-02-21T08:00:50;7.10;99.90
22682;DHT22;11508;50.856;4.380;2023-02-21T08:03:17;7.30;99.90
22682;DHT22;11508;50.856;4.380;2023-02-21T08:05:43;7.20;99.90
22682;DHT22;11508;50.856;4.380;2023-02-21T08:08:11;7.10;99.90
22682;DHT22;11508;50.856;4.380;2023-02-21T08:10:37;7.20;99.90
22682;DHT22;11508;50.856;4.380;2023-02-21T08:13:04;7.00;99.90
22682;DHT22;11508;50.856;4.380;2023-02-21T08:15:29;7.00;99.90
22682;DHT22;11508;50.856;4.380;2023-02-21T08:17:55;7.10;99.90
22682;DHT22;11508;50.856;4.380;2023-02-21T08:20:21;7.00;99.90
22682;DHT22;11508;50.856;4.380;2023-02-21T08:22:46;7.10;99.90
22682;DHT22;11508;50.856;4.380;2023-02-21T08:25:13;7.10;99.90
22682;DHT22;11508;50.856;4.380;2023-02-21T08:27:40;7.10;99.90
22682;DHT22;11508;50.856;4.380;2023-02-21T08:30:12;7.20;99.90
22682;DHT22;11508;50.856;4.380;2023-02-21T08:32:38;7.30;99.90
22682;DHT22;11508;50.856;4.380;2023-02-21T08:35:04;7.20;99.90
22682;DHT22;11508;50.856;4.380;2023-02-21T08:37:32;7.40;99.90
22682;DHT22;11508;50.856;4.380;2023-02-21T08:40:01;7.30;99.90
22682;DHT22;11508;50.856;4.380;2023-02-21T08:42:26;7.40;99.90
22682;DHT22;11508;50.856;4.380;2023-02-21T08:44:52;7.40;99.90
22682;DHT22;11508;50.856;4.380;2023-02-21T08:47:18;7.30;99.90
22682;DHT22;11508;50.856;4.380;2023-02-21T08:49:47;7.10;99.90
22682;DHT22;11508;50.856;4.380;2023-02-21T08:52:14;7.10;99.90
22682;DHT22;11508;50.856;4.380;2023-02-21T08:54:41;7.10;99.90
22682;DHT22;11508;50.856;4.380;2023-02-21T08:57:08;7.20;99.90
22682;DHT22;11508;50.856;4.380;2023-02-21T08:59:33;7.00;99.90
22682;DHT22;11508;50.856;4.380;2023-02-21T09:01:59;7.10;99.90
22682;DHT22;11508;50.856;4.380;2023-02-21T09:04:25;7.10;99.90
22682;DHT22;11508;50.856;4.380;2023-02-21T09:06:53;7.20;99.90
22682;DHT22;11508;50.856;4.380;2023-02-21T09:09:18;7.10;99.90
22682;DHT22;11508;50.856;4.380;2023-02-21T09:11:45;6.90;99.90
22682;DHT22;11508;50.856;4.380;2023-02-21T09:14:13;7.00;99.90
22682;DHT22;11508;50.856;4.380;2023-02-21T09:16:39;7.20;99.90
22682;DHT22;11508;50.856;4.380;2023-02-21T09:19:05;7.60;99.90
22682;DHT22;11508;50.856;4.380;2023-02-21T09:21:32;7.60;99.90
22682;DHT22;11508;50.856;4.380;2023-02-21T09:23:58;7.30;99.90
22682;DHT22;11508;50.856;4.380;2023-02-21T09:26:24;7.40;99.90
22682;DHT22;11508;50.856;4.380;2023-02-21T09:28:51;7.30;99.90
22682;DHT22;11508;50.856;4.380;2023-02-21T09:31:17;7.30;99.90
22682;DHT22;11508;50.856;4.380;2023-02-21T09:33:44;7.40;99.90
22682;DHT22;11508;50.856;4.380;2023-02-21T09:36:10;7.30;99.90
22682;DHT22;11508;50.856;4.380;2023-02-21T09:38:36;7.40;99.90
22682;DHT22;11508;50.856;4.380;2023-02-21T09:41:09;7.40;99.90
22682;DHT22;11508;50.856;4.380;2023-02-21T09:43:43;7.60;99.90
22682;DHT22;11508;50.856;4.380;2023-02-21T09:46:18;7.70;99.90
22682;DHT22;11508;50.856;4.380;2023-02-21T09:48:46;7.70;99.90
22682;DHT22;11508;50.856;4.380;2023-02-21T09:51:13;7.80;99.90
22682;DHT22;11508;50.856;4.380;2023-02-21T09:53:43;8.10;99.90
22682;DHT22;11508;50.856;4.380;2023-02-21T09:56:24;8.10;99.90
22682;DHT22;11508;50.856;4.380;2023-02-21T09:58:52;8.20;99.90
22682;DHT22;11508;50.856;4.380;2023-02-21T10:04:36;7.50;99.90
22682;DHT22;11508;50.856;4.380;2023-02-21T10:07:25;7.50;99.90
22682;DHT22;11508;50.856;4.380;2023-02-21T10:09:55;7.30;99.90
22682;DHT22;11508;50.856;4.380;2023-02-21T10:12:45;7.20;99.90
22682;DHT22;11508;50.856;4.380;2023-02-21T10:17:58;7.20;99.90
22682;DHT22;11508;50.856;4.380;2023-02-21T10:20:38;7.40;99.90
22682;DHT22;11508;50.856;4.380;2023-02-21T10:23:17;7.40;99.90
22682;DHT22;11508;50.856;4.380;2023-02-21T10:25:44;7.40;99.90
22682;DHT22;11508;50.856;4.380;2023-02-21T10:28:22;7.40;99.90
22682;DHT22;11508;50.856;4.380;2023-02-21T10:30:50;7.50;99.90
22682;DHT22;11508;50.856;4.380;2023-02-21T10:33:16;7.40;99.90
22682;DHT22;11508;50.856;4.380;2023-02-21T10:35:42;7.50;99.90
22682;DHT22;11508;50.856;4.380;2023-02-21T10:38:18;7.70;99.90
22682;DHT22;11508;50.856;4.380;2023-02-21T10:43:29;7.40;99.90
22682;DHT22;11508;50.856;4.380;2023-02-21T10:45:59;7.40;99.90
22682;DHT22;11508;50.856;4.380;2023-02-21T10:48:31;7.40;99.90
22682;DHT22;11508;50.856;4.380;2023-02-21T10:51:16;7.50;99.90
22682;DHT22;11508;50.856;4.380;2023-02-21T10:53:52;7.80;99.90
22682;DHT22;11508;50.856;4.380;2023-02-21T10:56:23;7.60;99.90
22682;DHT22;11508;50.856;4.380;2023-02-21T10:59:12;7.60;99.90
22682;DHT22;11508;50.856;4.380;2023-02-21T11:01:44;7.70;99.90
22682;DHT22;11508;50.856;4.380;2023-02-21T11:06:57;7.70;99.90
22682;DHT22;11508;50.856;4.380;2023-02-21T11:12:01;7.90;99.90
22682;DHT22;11508;50.856;4.380;2023-02-21T11:14:27;7.80;99.90
22682;DHT22;11508;50.856;4.380;2023-02-21T11:17:12;7.80;99.90
22682;DHT22;11508;50.856;4.380;2023-02-21T11:22:09;7.70;99.90
22682;DHT22;11508;50.856;4.380;2023-02-21T11:30:47;7.60;99.90
22682;DHT22;11508;50.856;4.380;2023-02-21T11:33:19;7.80;99.90
22682;DHT22;11508;50.856;4.380;2023-02-21T11:35:47;8.10;99.90
22682;DHT22;11508;50.856;4.380;2023-02-21T11:38:35;8.20;99.90
22682;DHT22;11508;50.856;4.380;2023-02-21T11:41:14;8.00;99.90
22682;DHT22;11508;50.856;4.380;2023-02-21T11:43:45;8.10;99.90
22682;DHT22;11508;50.856;4.380;2023-02-21T11:51:47;8.40;99.90
22682;DHT22;11508;50.856;4.380;2023-02-21T11:54:13;8.30;99.90
22682;DHT22;11508;50.856;4.380;2023-02-21T11:57:03;8.30;99.90
22682;DHT22;11508;50.856;4.380;2023-02-21T12:02:37;8.20;99.90
22682;DHT22;11508;50.856;4.380;2023-02-21T12:05:29;8.20;99.90
22682;DHT22;11508;50.856;4.380;2023-02-21T12:15:53;8.00;99.90
22682;DHT22;11508;50.856;4.380;2023-02-21T12:27:00;8.40;99.90
22682;DHT22;11508;50.856;4.380;2023-02-21T12:32:26;8.70;99.90
22682;DHT22;11508;50.856;4.380;2023-02-21T12:35:07;8.60;99.90
22682;DHT22;11508;50.856;4.380;2023-02-21T12:43:26;8.80;99.90
22682;DHT22;11508;50.856;4.380;2023-02-21T12:46:07;8.70;99.90
22682;DHT22;11508;50.856;4.380;2023-02-21T12:51:25;8.80;99.90
22682;DHT22;11508;50.856;4.380;2023-02-21T12:53:57;9.00;99.90
22682;DHT22;11508;50.856;4.380;2023-02-21T12:56:49;8.60;99.90
22682;DHT22;11508;50.856;4.380;2023-02-21T12:59:45;8.50;99.90
22682;DHT22;11508;50.856;4.380;2023-02-21T13:05:25;8.50;99.90
22682;DHT22;11508;50.856;4.380;2023-02-21T13:08:00;8.60;99.90
22682;DHT22;11508;50.856;4.380;2023-02-21T13:10:41;8.80;99.90
22682;DHT22;11508;50.856;4.380;2023-02-21T13:13:17;8.90;99.90
22682;DHT22;11508;50.856;4.380;2023-02-21T13:15:46;8.80;99.90
22682;DHT22;11508;50.856;4.380;2023-02-21T13:18:35;8.90;99.90
22682;DHT22;11508;50.856;4.380;2023-02-21T13:30:21;8.60;99.90
22682;DHT22;11508;50.856;4.380;2023-02-21T13:32:54;8.80;99.90
22682;DHT22;11508;50.856;4.380;2023-02-21T13:35:37;9.10;99.90
22682;DHT22;11508;50.856;4.380;2023-02-21T13:38:05;8.90;99.90
22682;DHT22;11508;50.856;4.380;2023-02-21T13:40:53;9.00;99.90
22682;DHT22;11508;50.856;4.380;2023-02-21T13:43:30;9.40;99.90
22682;DHT22;11508;50.856;4.380;2023-02-21T13:57:47;9.10;99.90
22682;DHT22;11508;50.856;4.380;2023-02-21T14:03:02;9.00;99.90
22682;DHT22;11508;50.856;4.380;2023-02-21T14:10:56;9.20;99.90
22682;DHT22;11508;50.856;4.380;2023-02-21T14:18:46;9.30;99.90
22682;DHT22;11508;50.856;4.380;2023-02-21T14:21:29;9.30;99.90
22682;DHT22;11508;50.856;4.380;2023-02-21T14:23:58;9.50;99.90
22682;DHT22;11508;50.856;4.380;2023-02-21T14:27:01;9.50;99.90
22682;DHT22;11508;50.856;4.380;2023-02-21T14:34:38;9.00;99.90
22682;DHT22;11508;50.856;4.380;2023-02-21T14:43:14;9.40;99.90
22682;DHT22;11508;50.856;4.380;2023-02-21T14:51:32;9.80;99.90
22682;DHT22;11508;50.856;4.380;2023-02-21T14:57:21;9.20;99.90
22682;DHT22;11508;50.856;4.380;2023-02-21T15:05:26;9.50;99.90
22682;DHT22;11508;50.856;4.380;2023-02-21T15:08:16;9.80;99.90
22682;DHT22;11508;50.856;4.380;2023-02-21T15:10:43;9.50;99.90
22682;DHT22;11508;50.856;4.380;2023-02-21T15:13:22;9.40;99.90
22682;DHT22;11508;50.856;4.380;2023-02-21T15:16:02;9.20;99.90
22682;DHT22;11508;50.856;4.380;2023-02-21T15:18:34;9.00;99.90
22682;DHT22;11508;50.856;4.380;2023-02-21T15:21:15;9.40;99.90
22682;DHT22;11508;50.856;4.380;2023-02-21T15:23:47;9.50;99.90
22682;DHT22;11508;50.856;4.380;2023-02-21T15:26:26;9.40;99.90
22682;DHT22;11508;50.856;4.380;2023-02-21T15:31:42;9.30;99.90
22682;DHT22;11508;50.856;4.380;2023-02-21T15:37:26;8.90;99.90
22682;DHT22;11508;50.856;4.380;2023-02-21T15:40:06;8.80;99.90
22682;DHT22;11508;50.856;4.380;2023-02-21T15:42:39;8.90;99.90
22682;DHT22;11508;50.856;4.380;2023-02-21T15:45:15;8.80;99.90
22682;DHT22;11508;50.856;4.380;2023-02-21T15:47:43;8.70;99.90
22682;DHT22;11508;50.856;4.380;2023-02-21T15:52:47;8.70;99.90
22682;DHT22;11508;50.856;4.380;2023-02-21T15:58:02;8.60;99.90
22682;DHT22;11508;50.856;4.380;2023-02-21T16:00:29;8.60;99.90
22682;DHT22;11508;50.856;4.380;2023-02-21T16:06:11;8.80;99.90
22682;DHT22;11508;50.856;4.380;2023-02-21T16:08:59;8.90;99.90
22682;DHT22;11508;50.856;4.380;2023-02-21T16:11:48;9.10;99.90
22682;DHT22;11508;50.856;4.380;2023-02-21T16:17:32;9.60;99.90
22682;DHT22;11508;50.856;4.380;2023-02-21T16:22:39;9.20;99.90
22682;DHT22;11508;50.856;4.380;2023-02-21T16:25:11;9.10;99.90
22682;DHT22;11508;50.856;4.380;2023-02-21T16:27:39;9.20;99.90
22682;DHT22;11508;50.856;4.380;2023-02-21T16:30:09;9.20;99.90
22682;DHT22;11508;50.856;4.380;2023-02-21T16:32:37;9.20;99.90
22682;DHT22;11508;50.856;4.380;2023-02-21T16:35:04;9.40;99.90
22682;DHT22;11508;50.856;4.380;2023-02-21T16:37:30;9.90;99.90
22682;DHT22;11508;50.856;4.380;2023-02-21T16:39:58;10.00;99.90
22682;DHT22;11508;50.856;4.380;2023-02-21T16:42:23;10.00;99.90
22682;DHT22;11508;50.856;4.380;2023-02-21T16:44:49;10.00;99.90
22682;DHT22;11508;50.856;4.380;2023-02-21T16:47:16;10.00;99.90
22682;DHT22;11508;50.856;4.380;2023-02-21T16:49:44;10.10;99.90
22682;DHT22;11508;50.856;4.380;2023-02-21T16:52:14;10.20;99.90
22682;DHT22;11508;50.856;4.380;2023-02-21T16:54:40;10.20;99.90
22682;DHT22;11508;50.856;4.380;2023-02-21T16:57:06;10.10;99.90
22682;DHT22;11508;50.856;4.380;2023-02-21T16:59:32;10.00;99.90
22682;DHT22;11508;50.856;4.380;2023-02-21T17:01:58;9.80;99.90
22682;DHT22;11508;50.856;4.380;2023-02-21T17:04:25;9.70;99.90
22682;DHT22;11508;50.856;4.380;2023-02-21T17:07:03;9.50;99.90
22682;DHT22;11508;50.856;4.380;2023-02-21T17:09:30;9.40;99.90
22682;DHT22;11508;50.856;4.380;2023-02-21T17:12:04;9.50;99.90
22682;DHT22;11508;50.856;4.380;2023-02-21T17:14:30;9.80;99.90
22682;DHT22;11508;50.856;4.380;2023-02-21T17:16:57;9.70;99.90
22682;DHT22;11508;50.856;4.380;2023-02-21T17:19:23;9.50;99.90
22682;DHT22;11508;50.856;4.380;2023-02-21T17:21:50;9.40;99.90
22682;DHT22;11508;50.856;4.380;2023-02-21T17:24:16;9.20;99.90
22682;DHT22;11508;50.856;4.380;2023-02-21T17:26:42;9.30;99.90
22682;DHT22;11508;50.856;4.380;2023-02-21T17:29:09;9.30;99.90
22682;DHT22;11508;50.856;4.380;2023-02-21T17:31:35;9.60;99.90
22682;DHT22;11508;50.856;4.380;2023-02-21T17:34:00;9.50;99.90
22682;DHT22;11508;50.856;4.380;2023-02-21T17:36:27;9.50;99.90
22682;DHT22;11508;50.856;4.380;2023-02-21T17:38:53;9.30;99.90
22682;DHT22;11508;50.856;4.380;2023-02-21T17:41:20;9.50;99.90
22682;DHT22;11508;50.856;4.380;2023-02-21T17:43:46;9.40;99.90
22682;DHT22;11508;50.856;4.380;2023-02-21T17:46:14;9.50;99.90
22682;DHT22;11508;50.856;4.380;2023-02-21T17:48:41;9.20;99.90
22682;DHT22;11508;50.856;4.380;2023-02-21T17:51:07;9.00;99.90
22682;DHT22;11508;50.856;4.380;2023-02-21T17:53:34;9.00;99.90
22682;DHT22;11508;50.856;4.380;2023-02-21T17:55:59;8.80;99.90
22682;DHT22;11508;50.856;4.380;2023-02-21T17:58:26;8.70;99.90
22682;DHT22;11508;50.856;4.380;2023-02-21T18:00:52;8.80;99.90
22682;DHT22;11508;50.856;4.380;2023-02-21T18:03:20;8.70;99.90
22682;DHT22;11508;50.856;4.380;2023-02-21T18:05:46;8.70;99.90
22682;DHT22;11508;50.856;4.380;2023-02-21T18:08:12;8.80;99.90
22682;DHT22;11508;50.856;4.380;2023-02-21T18:10:37;8.70;99.90
22682;DHT22;11508;50.856;4.380;2023-02-21T18:13:03;8.80;99.90
22682;DHT22;11508;50.856;4.380;2023-02-21T18:15:29;8.70;99.90
22682;DHT22;11508;50.856;4.380;2023-02-21T18:17:55;8.80;99.90
22682;DHT22;11508;50.856;4.380;2023-02-21T18:20:20;8.70;99.90
22682;DHT22;11508;50.856;4.380;2023-02-21T18:22:46;8.70;99.90
22682;DHT22;11508;50.856;4.380;2023-02-21T18:25:13;8.70;99.90
22682;DHT22;11508;50.856;4.380;2023-02-21T18:27:40;8.50;99.90
22682;DHT22;11508;50.856;4.380;2023-02-21T18:30:06;8.50;99.90
22682;DHT22;11508;50.856;4.380;2023-02-21T18:32:32;8.40;99.90
22682;DHT22;11508;50.856;4.380;2023-02-21T18:34:58;8.40;99.90
22682;DHT22;11508;50.856;4.380;2023-02-21T18:37:27;8.50;99.90
22682;DHT22;11508;50.856;4.380;2023-02-21T18:39:53;8.40;99.90
22682;DHT22;11508;50.856;4.380;2023-02-21T18:42:20;8.30;99.90
22682;DHT22;11508;50.856;4.380;2023-02-21T18:44:47;8.10;99.90
22682;DHT22;11508;50.856;4.380;2023-02-21T18:47:13;8.00;99.90
22682;DHT22;11508;50.856;4.380;2023-02-21T18:49:42;8.20;99.90
22682;DHT22;11508;50.856;4.380;2023-02-21T18:52:09;8.20;99.90
22682;DHT22;11508;50.856;4.380;2023-02-21T18:54:41;8.20;99.90
22682;DHT22;11508;50.856;4.380;2023-02-21T18:57:07;8.10;99.90
22682;DHT22;11508;50.856;4.380;2023-02-21T18:59:33;8.10;99.90
22682;DHT22;11508;50.856;4.380;2023-02-21T19:01:59;8.20;99.90
22682;DHT22;11508;50.856;4.380;2023-02-21T19:04:25;8.20;99.90
22682;DHT22;11508;50.856;4.380;2023-02-21T19:06:50;8.10;99.90
22682;DHT22;11508;50.856;4.380;2023-02-21T19:09:16;8.00;99.90
22682;DHT22;11508;50.856;4.380;2023-02-21T19:11:42;7.90;99.90
22682;DHT22;11508;50.856;4.380;2023-02-21T19:14:07;8.10;99.90
22682;DHT22;11508;50.856;4.380;2023-02-21T19:16:33;8.10;99.90
22682;DHT22;11508;50.856;4.380;2023-02-21T19:18:59;8.30;99.90